Time;durP1;ratioP1;P1;durP2;ratioP2;P2;SDS_P1;SDS_P2;PMS_P1;PMS_P2;Temp;Humidity;BMP_temperature;BMP_pressure;BME280_temperature;BME280_humidity;BME280_pressure;Samples;Min_cycle;Max_cycle;Signal;HPM_P1;HPM_P2
2023/06/16 00:00:43;;;;;;;;;;;;;;;20.75;64.53;100703.08;107285;1254;99149;-65
2023/06/16 00:03:35;;;;;;;;;;;;;;;20.76;64.60;100702.33;107299;1257;115425;-66
2023/06/16 00:06:12;;;;;;;;;;;;;;;20.81;64.91;100702.25;107280;1254;108161;-64
2023/06/16 00:08:45;;;;;;;;;;;;;;;20.86;64.70;100699.02;107224;1254;108163;-64
2023/06/16 00:11:14;;;;;;;;;;;;;;;20.90;64.71;100697.64;107381;1254;99054;-66
2023/06/16 00:13:43;;;;;;;;;;;;;;;20.92;64.68;100695.38;107307;1254;99048;-65
2023/06/16 00:16:19;;;;;;;;;;;;;;;20.91;64.65;100695.67;107358;1254;113065;-66
2023/06/16 00:18:51;;;;;;;;;;;;;;;20.88;64.59;100692.44;107375;1254;109246;-67
2023/06/16 00:21:27;;;;;;;;;;;;;;;20.84;64.73;100695.70;107340;1257;108886;-67
2023/06/16 00:23:56;;;;;;;;;;;;;;;20.77;64.92;100692.32;107207;1254;99282;-66
2023/06/16 00:26:24;;;;;;;;;;;;;;;20.70;64.82;100692.64;107330;1254;99172;-65
2023/06/16 00:28:52;;;;;;;;;;;;;;;20.67;64.93;100693.92;107361;1254;113241;-64
2023/06/16 00:31:21;;;;;;;;;;;;;;;20.64;64.85;100694.44;107327;1254;109826;-64
2023/06/16 00:33:49;;;;;;;;;;;;;;;20.58;65.05;100690.86;107237;1254;108477;-65
2023/06/16 00:36:18;;;;;;;;;;;;;;;20.50;65.80;100690.16;107296;1259;99156;-66
2023/06/16 00:38:46;;;;;;;;;;;;;;;20.38;66.70;100687.52;107328;1254;99176;-68
2023/06/16 00:41:14;;;;;;;;;;;;;;;20.24;67.90;100689.93;107335;1254;112711;-66
2023/06/16 00:43:43;;;;;;;;;;;;;;;20.11;68.12;100690.52;107310;1254;108232;-66
2023/06/16 00:46:21;;;;;;;;;;;;;;;20.01;68.82;100693.49;107316;1253;108170;-65
2023/06/16 00:48:49;;;;;;;;;;;;;;;19.91;69.30;100695.45;107325;1254;99071;-66
2023/06/16 00:51:17;;;;;;;;;;;;;;;19.85;69.62;100697.49;107325;1253;99073;-66
2023/06/16 00:53:46;;;;;;;;;;;;;;;19.83;69.68;100695.16;107313;1253;113813;-66
2023/06/16 00:56:16;;;;;;;;;;;;;;;19.85;69.95;100697.33;107322;1253;109674;-67
2023/06/16 00:58:44;;;;;;;;;;;;;;;19.84;69.82;100704.58;107300;1254;107594;-65
2023/06/16 01:01:14;;;;;;;;;;;;;;;19.82;69.87;100706.61;107213;1259;99183;-66
2023/06/16 01:03:44;;;;;;;;;;;;;;;19.79;70.06;100710.03;107312;1253;99252;-66
2023/06/16 01:06:17;;;;;;;;;;;;;;;19.75;70.24;100709.29;107365;1257;113246;-66
2023/06/16 01:09:08;;;;;;;;;;;;;;;19.68;70.91;100715.66;107250;1254;109987;-68
2023/06/16 01:11:41;;;;;;;;;;;;;;;19.60;71.13;100717.99;107351;1254;107666;-65
2023/06/16 01:14:21;;;;;;;;;;;;;;;19.51;71.51;100715.45;107330;1254;99674;-65
2023/06/16 01:16:53;;;;;;;;;;;;;;;19.49;71.14;100715.80;107322;1253;99163;-66
2023/06/16 01:19:28;;;;;;;;;;;;;;;19.45;71.28;100710.94;107250;1254;112478;-66
2023/06/16 01:22:25;;;;;;;;;;;;;;;19.43;71.19;100711.38;107265;1254;109793;-67
2023/06/16 01:24:57;;;;;;;;;;;;;;;19.44;71.92;100710.21;106962;1255;108353;-66
2023/06/16 01:27:29;;;;;;;;;;;;;;;19.46;71.19;100707.59;107247;1254;99768;-67
2023/06/16 01:30:00;;;;;;;;;;;;;;;19.48;71.83;100709.96;107411;1253;99055;-65
2023/06/16 01:32:28;;;;;;;;;;;;;;;19.50;71.09;100713.00;107330;1254;111616;-65
2023/06/16 01:34:57;;;;;;;;;;;;;;;19.52;71.58;100714.42;107278;1254;109217;-65
2023/06/16 01:37:26;;;;;;;;;;;;;;;19.47;71.44;100709.23;107317;1254;109923;-65
2023/06/16 01:39:55;;;;;;;;;;;;;;;19.41;71.13;100711.12;107331;1254;99209;-67
2023/06/16 01:42:25;;;;;;;;;;;;;;;19.42;70.97;100713.89;107338;1254;99058;-65
2023/06/16 01:44:53;;;;;;;;;;;;;;;19.44;70.80;100717.23;107331;1254;112852;-67
2023/06/16 01:47:23;;;;;;;;;;;;;;;19.50;71.16;100718.20;107333;1253;109903;-66
2023/06/16 01:49:53;;;;;;;;;;;;;;;19.46;73.07;100717.91;107366;1254;107377;-64
2023/06/16 01:52:21;;;;;;;;;;;;;;;19.27;74.63;100712.08;107331;1254;99179;-65
2023/06/16 01:54:49;;;;;;;;;;;;;;;19.12;74.87;100713.28;107324;1254;99163;-64
2023/06/16 01:57:17;;;;;;;;;;;;;;;18.98;75.94;100708.82;107294;1258;113749;-66
2023/06/16 01:59:47;;;;;;;;;;;;;;;18.87;77.53;100706.23;107086;1254;109895;-66
2023/06/16 02:02:19;;;;;;;;;;;;;;;18.79;77.67;100704.67;107268;1259;107316;-65
2023/06/16 02:04:51;;;;;;;;;;;;;;;18.75;77.60;100702.75;107319;1254;99166;-65
2023/06/16 02:07:21;;;;;;;;;;;;;;;18.76;77.17;100702.45;107310;1254;99224;-65
2023/06/16 02:09:49;;;;;;;;;;;;;;;18.77;77.42;100700.50;107345;1254;113096;-66
2023/06/16 02:12:18;;;;;;;;;;;;;;;18.79;78.01;100702.11;107290;1254;109861;-65
2023/06/16 02:14:48;;;;;;;;;;;;;;;18.78;78.19;100700.89;107262;1254;107195;-66
2023/06/16 02:17:16;;;;;;;;;;;;;;;18.77;78.73;100698.66;107292;1254;99060;-66
2023/06/16 02:19:44;;;;;;;;;;;;;;;18.78;78.27;100694.27;107130;1254;97993;-64
2023/06/16 02:22:12;;;;;;;;;;;;;;;18.81;78.11;100696.48;107312;1254;112105;-66
2023/06/16 02:24:41;;;;;;;;;;;;;;;18.85;77.98;100699.61;107307;1257;109441;-66
2023/06/16 02:27:09;;;;;;;;;;;;;;;18.89;77.44;100700.50;107313;1254;107917;-66
2023/06/16 02:29:38;;;;;;;;;;;;;;;18.91;77.54;100698.77;107273;1254;99175;-65
2023/06/16 02:32:06;;;;;;;;;;;;;;;18.90;77.86;100690.77;107325;1254;99173;-66
2023/06/16 02:34:34;;;;;;;;;;;;;;;18.87;77.99;100687.98;107108;1256;113464;-66
2023/06/16 02:37:03;;;;;;;;;;;;;;;18.83;78.73;100688.23;107305;1254;109670;-64
2023/06/16 02:39:31;;;;;;;;;;;;;;;18.82;78.61;100691.29;107269;1256;107937;-65
2023/06/16 02:42:00;;;;;;;;;;;;;;;18.83;78.65;100687.69;107374;1254;99227;-67
2023/06/16 02:44:28;;;;;;;;;;;;;;;18.83;78.23;100689.42;107288;1254;99282;-64
2023/06/16 02:46:57;;;;;;;;;;;;;;;18.89;77.65;100690.94;107283;1254;112789;-63
2023/06/16 02:49:26;;;;;;;;;;;;;;;18.98;77.71;100692.58;107318;1256;108638;-65
2023/06/16 02:51:56;;;;;;;;;;;;;;;19.04;77.30;100695.20;107276;1254;108537;-64
2023/06/16 02:54:26;;;;;;;;;;;;;;;19.08;76.96;100694.70;107263;1254;99473;-65
2023/06/16 02:56:54;;;;;;;;;;;;;;;19.16;76.59;100696.31;107344;1254;99189;-65
2023/06/16 02:59:28;;;;;;;;;;;;;;;19.28;76.54;100697.31;107321;1254;113289;-66
2023/06/16 03:01:57;;;;;;;;;;;;;;;19.43;76.08;100697.83;107200;1257;110080;-68
2023/06/16 03:04:30;;;;;;;;;;;;;;;19.56;75.49;100700.40;107209;1255;108099;-65
2023/06/16 03:07:17;;;;;;;;;;;;;;;19.70;75.19;100699.39;107080;1256;99262;-65
2023/06/16 03:09:46;;;;;;;;;;;;;;;19.84;75.12;100697.11;107283;1257;99042;-65
2023/06/16 03:12:15;;;;;;;;;;;;;;;19.96;74.68;100695.31;107251;1255;112734;-66
2023/06/16 03:14:53;;;;;;;;;;;;;;;20.01;73.95;100695.13;107266;1256;109659;-66
2023/06/16 03:17:21;;;;;;;;;;;;;;;20.05;73.72;100696.16;107247;1259;108192;-66
2023/06/16 03:19:50;;;;;;;;;;;;;;;20.15;73.47;100698.41;107220;1255;99032;-65
2023/06/16 03:22:24;;;;;;;;;;;;;;;20.23;73.36;100697.39;107112;1257;99288;-65
2023/06/16 03:24:53;;;;;;;;;;;;;;;20.29;73.11;100698.02;107206;1257;113099;-67
2023/06/16 03:27:21;;;;;;;;;;;;;;;20.36;72.84;100696.70;107112;1254;108741;-66
2023/06/16 03:29:55;;;;;;;;;;;;;;;20.42;72.52;100693.03;107302;1254;108121;-64
2023/06/16 03:32:23;;;;;;;;;;;;;;;20.49;72.52;100687.48;107253;1257;99251;-67
2023/06/16 03:34:53;;;;;;;;;;;;;;;20.56;72.54;100685.02;107230;1255;99332;-66
2023/06/16 03:37:22;;;;;;;;;;;;;;;20.58;72.24;100683.77;107225;1255;113080;-66
2023/06/16 03:39:50;;;;;;;;;;;;;;;20.64;72.07;100684.97;107302;1255;109612;-65
2023/06/16 03:42:19;;;;;;;;;;;;;;;20.67;71.50;100686.78;107318;1254;106841;-65
2023/06/16 03:44:48;;;;;;;;;;;;;;;20.67;71.21;100685.52;107228;1254;98950;-66
2023/06/16 03:47:19;;;;;;;;;;;;;;;20.72;71.29;100683.65;107265;1254;99064;-64
2023/06/16 03:49:47;;;;;;;;;;;;;;;20.75;71.43;100682.09;107346;1257;112654;-65
2023/06/16 03:52:16;;;;;;;;;;;;;;;20.76;71.20;100683.48;107329;1259;109156;-66
2023/06/16 03:54:45;;;;;;;;;;;;;;;20.77;71.14;100684.54;107348;1254;108878;-66
2023/06/16 03:57:14;;;;;;;;;;;;;;;20.84;71.07;100684.05;107330;1254;99157;-66
2023/06/16 03:59:42;;;;;;;;;;;;;;;20.89;71.07;100681.91;107346;1254;99144;-66
2023/06/16 04:02:11;;;;;;;;;;;;;;;20.89;70.89;100680.07;107297;1254;113553;-66
2023/06/16 04:04:45;;;;;;;;;;;;;;;20.98;71.04;100678.64;107268;1254;109334;-67
2023/06/16 04:07:14;;;;;;;;;;;;;;;21.01;70.87;100677.89;107238;1255;108151;-67
2023/06/16 04:09:42;;;;;;;;;;;;;;;21.07;70.81;100673.66;107246;1257;99191;-65
2023/06/16 04:12:11;;;;;;;;;;;;;;;21.18;70.64;100674.77;107270;1259;99053;-66
2023/06/16 04:14:39;;;;;;;;;;;;;;;21.27;70.42;100675.54;107158;1257;113438;-66
2023/06/16 04:17:09;;;;;;;;;;;;;;;21.36;70.14;100671.36;107349;1254;110235;-65
2023/06/16 04:19:38;;;;;;;;;;;;;;;21.45;69.64;100666.23;107279;1254;108317;-65
2023/06/16 04:22:06;;;;;;;;;;;;;;;21.45;69.17;100665.60;107269;1254;99207;-67
2023/06/16 04:24:45;;;;;;;;;;;;;;;21.42;69.20;100667.73;107264;1254;99301;-67
2023/06/16 04:27:15;;;;;;;;;;;;;;;21.42;69.35;100671.29;107122;1260;113312;-67
2023/06/16 04:29:48;;;;;;;;;;;;;;;21.47;69.13;100671.27;107373;1254;109317;-67
2023/06/16 04:32:20;;;;;;;;;;;;;;;21.52;68.95;100667.61;107319;1254;108496;-66
2023/06/16 04:34:51;;;;;;;;;;;;;;;21.56;68.69;100669.05;107363;1254;99157;-66
2023/06/16 04:37:21;;;;;;;;;;;;;;;21.56;68.49;100675.95;107293;1254;99202;-67
2023/06/16 04:39:50;;;;;;;;;;;;;;;21.59;68.63;100676.43;107220;1254;113507;-67
2023/06/16 04:42:21;;;;;;;;;;;;;;;21.67;68.56;100676.55;107294;1254;109898;-67
2023/06/16 04:44:50;;;;;;;;;;;;;;;21.71;68.45;100674.46;107275;1254;107505;-66
2023/06/16 04:47:19;;;;;;;;;;;;;;;21.78;68.43;100674.27;107316;1254;99196;-65
2023/06/16 04:49:47;;;;;;;;;;;;;;;21.85;68.29;100670.89;107343;1254;99054;-65
2023/06/16 04:52:16;;;;;;;;;;;;;;;21.91;67.95;100668.52;107182;1257;113412;-65
2023/06/16 04:54:45;;;;;;;;;;;;;;;21.87;67.25;100670.20;107191;1254;109206;-70
2023/06/16 04:57:14;;;;;;;;;;;;;;;21.88;67.35;100662.45;107332;1254;108192;-67
2023/06/16 04:59:42;;;;;;;;;;;;;;;21.95;67.36;100667.20;107243;1254;99968;-67
2023/06/16 05:02:10;;;;;;;;;;;;;;;22.04;67.52;100669.95;107329;1254;99694;-67
2023/06/16 05:04:43;;;;;;;;;;;;;;;22.10;67.14;100665.42;107320;1253;113069;-66
2023/06/16 05:07:14;;;;;;;;;;;;;;;22.13;66.71;100666.73;107268;1254;108880;-67
2023/06/16 05:09:42;;;;;;;;;;;;;;;22.19;66.97;100662.33;107338;1254;108479;-66
2023/06/16 05:12:10;;;;;;;;;;;;;;;22.33;66.77;100665.35;107379;1254;99165;-66
2023/06/16 05:14:39;;;;;;;;;;;;;;;22.43;66.57;100665.22;107263;1254;99186;-67
2023/06/16 05:17:09;;;;;;;;;;;;;;;22.51;66.52;100665.27;107466;1254;112711;-67
2023/06/16 05:19:37;;;;;;;;;;;;;;;22.56;66.16;100664.19;107251;1254;109755;-66
2023/06/16 05:22:05;;;;;;;;;;;;;;;22.59;65.97;100664.84;107334;1254;107771;-65
2023/06/16 05:24:34;;;;;;;;;;;;;;;22.62;65.70;100666.23;107341;1254;99264;-67
2023/06/16 05:27:03;;;;;;;;;;;;;;;22.63;65.58;100670.81;107117;1261;99262;-66
2023/06/16 05:29:32;;;;;;;;;;;;;;;22.65;65.46;100668.21;107326;1254;113895;-67
2023/06/16 05:32:00;;;;;;;;;;;;;;;22.66;65.35;100668.81;107332;1254;109396;-66
2023/06/16 05:34:29;;;;;;;;;;;;;;;22.67;65.21;100666.84;107309;1255;108041;-65
2023/06/16 05:36:58;;;;;;;;;;;;;;;22.70;65.28;100664.36;107317;1254;99839;-67
2023/06/16 05:39:27;;;;;;;;;;;;;;;22.76;65.27;100664.25;107385;1254;99170;-65
2023/06/16 05:41:55;;;;;;;;;;;;;;;22.83;65.46;100666.20;107359;1254;112831;-66
2023/06/16 05:44:24;;;;;;;;;;;;;;;22.86;65.16;100663.98;107220;1253;108815;-65
2023/06/16 05:46:52;;;;;;;;;;;;;;;22.84;64.76;100662.21;107402;1253;107906;-67
2023/06/16 05:49:20;;;;;;;;;;;;;;;22.86;64.81;100667.31;107182;1256;99183;-67
2023/06/16 05:51:51;;;;;;;;;;;;;;;22.90;65.05;100669.67;107206;1257;99246;-65
2023/06/16 05:54:20;;;;;;;;;;;;;;;22.96;64.84;100667.03;107331;1254;112803;-65
2023/06/16 05:56:52;;;;;;;;;;;;;;;23.06;64.69;100670.86;107290;1254;109303;-67
2023/06/16 05:59:20;;;;;;;;;;;;;;;23.15;64.45;100670.63;107355;1254;108206;-67
2023/06/16 06:01:49;;;;;;;;;;;;;;;23.25;64.41;100671.42;107401;1254;99285;-68
2023/06/16 06:04:27;;;;;;;;;;;;;;;23.33;64.02;100670.60;107379;1254;99241;-67
2023/06/16 06:06:57;;;;;;;;;;;;;;;23.42;63.86;100669.59;107362;1254;112798;-66
2023/06/16 06:09:25;;;;;;;;;;;;;;;23.50;63.66;100671.39;107406;1254;110856;-66
2023/06/16 06:11:53;;;;;;;;;;;;;;;23.57;63.19;100675.34;107245;1254;108411;-66
2023/06/16 06:14:22;;;;;;;;;;;;;;;23.59;62.83;100674.29;107355;1254;99180;-66
2023/06/16 06:16:51;;;;;;;;;;;;;;;23.59;62.42;100675.40;107292;1254;99197;-67
2023/06/16 06:19:23;;;;;;;;;;;;;;;23.61;62.59;100674.70;107327;1254;112508;-67
2023/06/16 06:21:51;;;;;;;;;;;;;;;23.68;62.28;100671.30;107361;1257;109237;-65
2023/06/16 06:24:20;;;;;;;;;;;;;;;23.77;62.12;100668.42;107320;1254;108216;-67
2023/06/16 06:26:49;;;;;;;;;;;;;;;23.89;62.13;100671.19;107277;1254;99181;-66
2023/06/16 06:29:17;;;;;;;;;;;;;;;24.00;61.74;100669.89;107378;1254;99170;-70
2023/06/16 06:31:46;;;;;;;;;;;;;;;24.09;61.63;100669.64;107174;1254;113061;-67
2023/06/16 06:34:15;;;;;;;;;;;;;;;24.16;61.25;100666.95;107330;1257;108857;-66
2023/06/16 06:36:45;;;;;;;;;;;;;;;24.24;60.85;100663.13;107349;1254;108591;-65
2023/06/16 06:39:13;;;;;;;;;;;;;;;24.36;60.54;100667.20;107264;1254;99192;-66
2023/06/16 06:41:43;;;;;;;;;;;;;;;24.45;60.11;100660.36;107385;1254;99163;-67
2023/06/16 06:44:17;;;;;;;;;;;;;;;24.55;59.47;100659.13;107286;1257;113405;-70
2023/06/16 06:46:50;;;;;;;;;;;;;;;24.62;59.32;100658.52;107154;1254;109008;-66
2023/06/16 06:49:20;;;;;;;;;;;;;;;24.71;58.22;100657.52;107334;1258;108655;-66
2023/06/16 06:51:48;;;;;;;;;;;;;;;24.76;57.80;100657.99;107313;1254;99169;-65
2023/06/16 06:54:16;;;;;;;;;;;;;;;24.82;57.63;100653.42;107309;1254;99291;-65
2023/06/16 06:56:44;;;;;;;;;;;;;;;24.90;57.42;100658.38;107367;1254;113255;-66
2023/06/16 06:59:13;;;;;;;;;;;;;;;24.98;57.18;100658.13;107365;1254;108837;-66
2023/06/16 07:01:41;;;;;;;;;;;;;;;25.10;57.11;100657.06;107313;1255;107795;-65
2023/06/16 07:04:09;;;;;;;;;;;;;;;25.12;56.11;100653.20;107322;1254;99243;-65
2023/06/16 07:06:37;;;;;;;;;;;;;;;25.16;56.02;100648.20;107445;1254;99170;-64
2023/06/16 07:09:06;;;;;;;;;;;;;;;25.20;55.89;100646.86;107337;1254;113282;-64
2023/06/16 07:11:45;;;;;;;;;;;;;;;25.29;55.39;100653.15;107359;1257;108632;-66
2023/06/16 07:14:13;;;;;;;;;;;;;;;25.36;55.18;100643.16;107351;1254;107705;-66
2023/06/16 07:16:42;;;;;;;;;;;;;;;25.41;54.86;100647.23;107293;1254;99188;-65
2023/06/16 07:19:10;;;;;;;;;;;;;;;25.47;55.09;100643.47;107215;1257;99372;-65
2023/06/16 07:21:38;;;;;;;;;;;;;;;25.59;54.73;100642.52;107396;1253;112194;-64
2023/06/16 07:24:06;;;;;;;;;;;;;;;25.71;54.26;100642.50;107355;1254;109493;-65
2023/06/16 07:26:35;;;;;;;;;;;;;;;25.82;54.12;100636.01;107311;1254;108763;-66
2023/06/16 07:29:03;;;;;;;;;;;;;;;25.97;53.70;100639.29;107216;1254;99433;-67
2023/06/16 07:31:34;;;;;;;;;;;;;;;26.07;52.95;100639.90;107271;1257;99640;-67
2023/06/16 07:34:03;;;;;;;;;;;;;;;26.15;52.36;100638.06;107415;1254;113250;-67
2023/06/16 07:36:32;;;;;;;;;;;;;;;26.21;51.30;100634.09;107232;1254;110208;-66
2023/06/16 07:39:01;;;;;;;;;;;;;;;26.19;51.31;100635.94;107319;1254;107461;-67
2023/06/16 07:41:32;;;;;;;;;;;;;;;26.09;51.03;100639.07;107353;1254;99176;-66
2023/06/16 07:44:00;;;;;;;;;;;;;;;26.07;51.47;100634.95;107426;1257;99229;-66
2023/06/16 07:46:29;;;;;;;;;;;;;;;26.16;51.54;100636.70;107398;1254;113362;-66
2023/06/16 07:48:57;;;;;;;;;;;;;;;26.28;51.20;100636.83;107379;1254;109656;-67
2023/06/16 07:51:25;;;;;;;;;;;;;;;26.37;51.37;100634.55;107335;1254;107947;-66
2023/06/16 07:53:53;;;;;;;;;;;;;;;26.54;49.77;100634.48;107338;1254;99208;-65
2023/06/16 07:56:21;;;;;;;;;;;;;;;26.62;49.90;100637.54;107376;1254;99165;-66
2023/06/16 07:58:49;;;;;;;;;;;;;;;26.68;50.10;100636.12;107410;1254;113698;-65
2023/06/16 08:01:17;;;;;;;;;;;;;;;26.72;50.12;100635.31;106519;1254;1248170;-66
2023/06/16 08:03:46;;;;;;;;;;;;;;;26.76;50.15;100635.49;107230;1254;108680;-65
2023/06/16 08:06:15;;;;;;;;;;;;;;;26.79;50.17;100635.02;107338;1254;99182;-65
2023/06/16 08:08:44;;;;;;;;;;;;;;;26.89;50.15;100633.81;107419;1254;99160;-67
2023/06/16 08:11:12;;;;;;;;;;;;;;;26.97;50.50;100637.95;107542;1254;112713;-66
2023/06/16 08:13:41;;;;;;;;;;;;;;;27.05;50.73;100639.35;107437;1258;109495;-65
2023/06/16 08:16:10;;;;;;;;;;;;;;;27.15;50.58;100638.86;107334;1259;107825;-66
2023/06/16 08:18:38;;;;;;;;;;;;;;;27.25;48.99;100640.17;107304;1254;99239;-66
2023/06/16 08:21:07;;;;;;;;;;;;;;;27.27;49.27;100639.92;107414;1258;99173;-66
2023/06/16 08:23:36;;;;;;;;;;;;;;;27.31;49.46;100639.05;107366;1254;112650;-66
2023/06/16 08:26:05;;;;;;;;;;;;;;;27.41;49.34;100636.57;107395;1254;109619;-68
2023/06/16 08:28:34;;;;;;;;;;;;;;;27.54;48.97;100633.23;107408;1254;107523;-66
2023/06/16 08:31:02;;;;;;;;;;;;;;;27.61;48.57;100628.93;107421;1257;99834;-64
2023/06/16 08:33:30;;;;;;;;;;;;;;;27.69;48.79;100633.20;107380;1254;99054;-66
2023/06/16 08:35:59;;;;;;;;;;;;;;;27.82;47.41;100626.41;107421;1254;112244;-67
2023/06/16 08:38:27;;;;;;;;;;;;;;;27.87;48.00;100618.02;107430;1254;109141;-65
2023/06/16 08:40:55;;;;;;;;;;;;;;;27.98;47.85;100617.77;107379;1254;107715;-68
2023/06/16 08:43:25;;;;;;;;;;;;;;;28.15;48.15;100611.98;107397;1253;100007;-67
2023/06/16 08:45:55;;;;;;;;;;;;;;;28.31;46.40;100609.58;107330;1254;99926;-68
2023/06/16 08:48:23;;;;;;;;;;;;;;;28.39;46.20;100608.10;107422;1258;113607;-68
2023/06/16 08:50:55;;;;;;;;;;;;;;;28.47;46.16;100602.98;107463;1254;110220;-67
2023/06/16 08:53:23;;;;;;;;;;;;;;;28.64;46.17;100598.09;107426;1254;108073;-66
2023/06/16 08:55:51;;;;;;;;;;;;;;;28.78;45.51;100592.86;107368;1254;99079;-66
2023/06/16 08:58:21;;;;;;;;;;;;;;;28.89;43.75;100587.45;107375;1257;99243;-66
2023/06/16 09:00:50;;;;;;;;;;;;;;;29.02;43.87;100582.61;107426;1254;112253;-67
2023/06/16 09:03:19;;;;;;;;;;;;;;;29.19;43.54;100576.36;107203;1254;110025;-67
2023/06/16 09:05:48;;;;;;;;;;;;;;;29.36;42.43;100574.13;107413;1255;108749;-66
2023/06/16 09:08:16;;;;;;;;;;;;;;;29.52;41.98;100570.52;107255;1255;99189;-65
2023/06/16 09:10:47;;;;;;;;;;;;;;;29.65;42.59;100570.25;107367;1254;99153;-68
2023/06/16 09:13:17;;;;;;;;;;;;;;;29.90;40.77;100567.94;107406;1254;112506;-67
2023/06/16 09:15:48;;;;;;;;;;;;;;;30.02;40.75;100564.45;107404;1254;109938;-67
2023/06/16 09:18:16;;;;;;;;;;;;;;;30.19;41.17;100561.61;107405;1254;109205;-66
2023/06/16 09:20:50;;;;;;;;;;;;;;;30.38;40.25;100558.21;107409;1259;99175;-66
2023/06/16 09:23:28;;;;;;;;;;;;;;;30.61;40.18;100554.63;107471;1254;99190;-67
2023/06/16 09:25:57;;;;;;;;;;;;;;;30.79;38.57;100559.45;107427;1254;113681;-68
2023/06/16 09:28:35;;;;;;;;;;;;;;;30.88;39.06;100556.84;107453;1254;108884;-69
2023/06/16 09:31:03;;;;;;;;;;;;;;;31.19;37.49;100553.06;107428;1258;108571;-68
2023/06/16 09:33:40;;;;;;;;;;;;;;;31.44;37.88;100550.63;107489;1254;99214;-66
2023/06/16 09:36:11;;;;;;;;;;;;;;;31.71;37.16;100548.48;107370;1257;99956;-67
2023/06/16 09:38:40;;;;;;;;;;;;;;;31.90;37.29;100551.88;107407;1253;113701;-68
2023/06/16 09:41:10;;;;;;;;;;;;;;;31.96;37.70;100551.06;107374;1254;109900;-66
2023/06/16 09:43:38;;;;;;;;;;;;;;;32.24;36.93;100547.88;107414;1254;108679;-67
2023/06/16 09:46:08;;;;;;;;;;;;;;;32.40;37.11;100546.89;107379;1254;99166;-65
2023/06/16 09:48:44;;;;;;;;;;;;;;;32.75;37.18;100540.61;107394;1254;99099;-65
2023/06/16 09:51:14;;;;;;;;;;;;;;;33.19;37.02;100533.33;107383;1254;113399;-66
2023/06/16 09:53:43;;;;;;;;;;;;;;;33.53;34.26;100528.51;107369;1259;110330;-66
2023/06/16 09:56:13;;;;;;;;;;;;;;;33.74;32.71;100526.80;107323;1254;107786;-67
2023/06/16 09:58:41;;;;;;;;;;;;;;;33.90;31.53;100515.86;107356;1254;99305;-67
2023/06/16 10:01:10;;;;;;;;;;;;;;;34.20;31.97;100512.80;107375;1254;99243;-67
2023/06/16 10:03:41;;;;;;;;;;;;;;;34.53;31.49;100510.52;107386;1259;112351;-67
2023/06/16 10:06:20;;;;;;;;;;;;;;;34.45;30.21;100513.83;107398;1254;109757;-65
2023/06/16 10:08:48;;;;;;;;;;;;;;;33.94;30.20;100506.97;107362;1254;108509;-65
2023/06/16 10:11:17;;;;;;;;;;;;;;;33.41;30.59;100510.52;107345;1253;99343;-66
2023/06/16 10:13:50;;;;;;;;;;;;;;;32.85;30.60;100516.64;107360;1258;99160;-67
2023/06/16 10:16:21;;;;;;;;;;;;;;;32.31;31.76;100508.09;107311;1254;113673;-66
2023/06/16 10:18:50;;;;;;;;;;;;;;;32.04;32.67;100503.80;107430;1254;109257;-66
2023/06/16 10:21:18;;;;;;;;;;;;;;;31.86;33.48;100506.62;107362;1254;108742;-66
2023/06/16 10:23:47;;;;;;;;;;;;;;;31.71;34.19;100506.40;107376;1254;99178;-66
2023/06/16 10:26:15;;;;;;;;;;;;;;;31.57;34.51;100506.82;107384;1254;99205;-67
2023/06/16 10:28:44;;;;;;;;;;;;;;;31.24;35.05;100508.05;107439;1254;114016;-68
2023/06/16 10:31:14;;;;;;;;;;;;;;;30.91;36.03;100507.20;107460;1254;109852;-65
2023/06/16 10:33:58;;;;;;;;;;;;;;;30.57;37.92;100503.65;107384;1259;108270;-65
2023/06/16 10:36:28;;;;;;;;;;;;;;;30.10;39.24;100504.49;107399;1253;99184;-65
2023/06/16 10:39:06;;;;;;;;;;;;;;;29.48;41.14;100504.54;107399;1254;99173;-67
2023/06/16 10:41:48;;;;;;;;;;;;;;;29.02;42.22;100503.23;107282;1257;112044;-65
2023/06/16 10:44:23;;;;;;;;;;;;;;;28.68;42.32;100498.39;107441;1254;109948;-65
2023/06/16 10:47:10;;;;;;;;;;;;;;;28.49;42.58;100499.09;107355;1254;108152;-65
2023/06/16 10:49:55;;;;;;;;;;;;;;;28.29;42.98;100502.63;107199;1259;99070;-65
2023/06/16 10:52:42;;;;;;;;;;;;;;;28.28;43.85;100501.95;107455;1254;99071;-64
2023/06/16 10:55:34;;;;;;;;;;;;;;;28.37;45.15;100501.98;107492;1253;112702;-69
2023/06/16 10:58:20;;;;;;;;;;;;;;;28.32;46.28;100499.94;107198;1257;110848;-66
2023/06/16 11:00:57;;;;;;;;;;;;;;;28.11;46.12;100489.82;107119;1256;108489;-67
2023/06/16 11:03:29;;;;;;;;;;;;;;;27.85;46.65;100482.50;107301;1254;99071;-67
2023/06/16 11:06:03;;;;;;;;;;;;;;;27.62;47.79;100484.98;107157;1256;99178;-67
2023/06/16 11:08:47;;;;;;;;;;;;;;;27.40;46.61;100483.10;107389;1254;112507;-67
2023/06/16 11:11:15;;;;;;;;;;;;;;;27.39;46.59;100483.35;107310;1254;109336;-68
2023/06/16 11:13:44;;;;;;;;;;;;;;;27.51;46.76;100483.70;107294;1254;108344;-66
2023/06/16 11:16:12;;;;;;;;;;;;;;;27.68;47.08;100482.36;107360;1254;99163;-67
2023/06/16 11:18:42;;;;;;;;;;;;;;;27.85;48.50;100476.19;107299;1254;99217;-67
2023/06/16 11:21:10;;;;;;;;;;;;;;;27.98;48.83;100476.79;107385;1259;111552;-65
2023/06/16 11:23:43;;;;;;;;;;;;;;;28.11;48.28;100475.23;107308;1254;109928;-66
2023/06/16 11:26:15;;;;;;;;;;;;;;;28.18;48.54;100473.98;107252;1255;107982;-68
2023/06/16 11:28:44;;;;;;;;;;;;;;;28.05;50.21;100475.37;107348;1254;99159;-67
2023/06/16 11:31:13;;;;;;;;;;;;;;;27.44;53.18;100485.36;107292;1254;99064;-66
2023/06/16 11:33:41;;;;;;;;;;;;;;;26.55;54.93;100487.25;107343;1258;112433;-66
2023/06/16 11:36:12;;;;;;;;;;;;;;;25.71;57.71;100486.09;107288;1254;109665;-65
2023/06/16 11:38:42;;;;;;;;;;;;;;;24.72;62.15;100486.22;107283;1257;108133;-65
2023/06/16 11:41:32;;;;;;;;;;;;;;;23.89;66.34;100481.31;107279;1254;99192;-66
2023/06/16 11:44:03;;;;;;;;;;;;;;;23.14;69.36;100474.05;107329;1254;99285;-65
2023/06/16 11:46:35;;;;;;;;;;;;;;;22.77;68.66;100464.39;107269;1254;113972;-64
2023/06/16 11:49:03;;;;;;;;;;;;;;;22.78;69.05;100457.81;107337;1259;109624;-64
2023/06/16 11:51:32;;;;;;;;;;;;;;;22.86;71.12;100453.40;107333;1258;107486;-65
2023/06/16 11:54:02;;;;;;;;;;;;;;;22.93;72.41;100453.92;107335;1254;99175;-64
2023/06/16 11:56:33;;;;;;;;;;;;;;;23.04;71.85;100460.52;107232;1260;99083;-65
2023/06/16 11:59:03;;;;;;;;;;;;;;;23.20;72.29;100457.50;107247;1254;113454;-64
2023/06/16 12:01:32;;;;;;;;;;;;;;;23.26;71.83;100457.65;106974;1254;110981;-65
2023/06/16 12:04:01;;;;;;;;;;;;;;;23.32;71.43;100452.81;107239;1258;108805;-64
2023/06/16 12:06:36;;;;;;;;;;;;;;;23.45;71.37;100449.95;107364;1257;99249;-66
2023/06/16 12:09:04;;;;;;;;;;;;;;;23.57;71.05;100453.66;107152;1255;98397;-66
2023/06/16 12:11:33;;;;;;;;;;;;;;;23.67;74.43;100450.86;107341;1257;113501;-64
2023/06/16 12:14:03;;;;;;;;;;;;;;;23.72;76.86;100448.18;107433;1254;109830;-65
2023/06/16 12:16:35;;;;;;;;;;;;;;;23.73;78.34;100446.42;107217;1254;108027;-65
2023/06/16 12:19:03;;;;;;;;;;;;;;;23.72;76.52;100446.32;107303;1254;99265;-66
2023/06/16 12:21:31;;;;;;;;;;;;;;;23.75;76.18;100447.09;107395;1254;99056;-65
2023/06/16 12:24:00;;;;;;;;;;;;;;;23.87;75.45;100438.45;107365;1257;112708;-65
2023/06/16 12:26:43;;;;;;;;;;;;;;;24.01;75.44;100436.48;107274;1254;109241;-66
2023/06/16 12:29:12;;;;;;;;;;;;;;;24.12;75.04;100433.92;107265;1255;108532;-65
2023/06/16 12:31:52;;;;;;;;;;;;;;;24.17;75.17;100431.73;107185;1259;99275;-67
2023/06/16 12:34:25;;;;;;;;;;;;;;;24.23;74.83;100427.20;107165;1259;99176;-66
2023/06/16 12:36:55;;;;;;;;;;;;;;;24.30;75.04;100431.14;107369;1257;113760;-65